Time;durP1;ratioP1;P1;durP2;ratioP2;P2;SDS_P1;SDS_P2;PMS_P1;PMS_P2;Temp;Humidity;BMP_temperature;BMP_pressure;BME280_temperature;BME280_humidity;BME280_pressure;Samples;Min_cycle;Max_cycle;Signal;HPM_P1;HPM_P2
2023/03/06 00:02:23;;;;;;;2.35;2.00;;;;;;;2.25;90.74;100827.44;5013171;28;20084;-83
2023/03/06 00:04:48;;;;;;;2.13;1.60;;;;;;;2.21;90.65;100823.13;5013323;28;20026;-82
2023/03/06 00:07:14;;;;;;;1.70;1.50;;;;;;;2.23;90.54;100821.47;5012704;28;20052;-82
2023/03/06 00:09:39;;;;;;;2.55;1.70;;;;;;;2.20;89.96;100816.28;5013304;28;20017;-82
2023/03/06 00:12:07;;;;;;;2.00;1.80;;;;;;;2.22;89.79;100817.16;5012875;28;20026;-82
2023/03/06 00:14:32;;;;;;;2.00;1.80;;;;;;;2.23;90.82;100816.34;5012320;28;20032;-83
2023/03/06 00:16:57;;;;;;;1.90;1.70;;;;;;;2.24;90.58;100810.38;5012461;28;20117;-83
2023/03/06 00:19:23;;;;;;;2.10;1.90;;;;;;;2.20;90.25;100807.72;5012895;28;20022;-82
2023/03/06 00:21:48;;;;;;;2.95;1.80;;;;;;;2.21;90.27;100810.31;5012251;28;20034;-82
2023/03/06 00:24:14;;;;;;;2.00;1.80;;;;;;;2.21;89.92;100806.88;5012908;28;20038;-82
2023/03/06 00:26:40;;;;;;;2.10;1.90;;;;;;;2.19;89.94;100801.75;5012655;28;20045;-83
2023/03/06 00:29:06;;;;;;;2.53;2.10;;;;;;;2.18;92.08;100804.28;5012221;28;20040;-83
2023/03/06 00:31:31;;;;;;;2.50;2.00;;;;;;;2.16;90.66;100799.09;5012896;28;20493;-83
2023/03/06 00:33:56;;;;;;;2.63;2.00;;;;;;;2.13;90.40;100801.63;5012616;28;20030;-82
2023/03/06 00:36:21;;;;;;;2.67;1.90;;;;;;;2.13;90.04;100797.38;5012377;28;20026;-83
2023/03/06 00:38:47;;;;;;;2.22;1.98;;;;;;;2.13;91.28;100799.94;5012873;28;20097;-82
2023/03/06 00:41:12;;;;;;;2.90;1.98;;;;;;;2.12;90.80;100797.34;5013033;28;20508;-83
2023/03/06 00:43:38;;;;;;;2.33;1.98;;;;;;;2.12;91.35;100787.97;5012151;28;20034;-83
2023/03/06 00:46:04;;;;;;;2.00;1.80;;;;;;;2.09;91.37;100782.78;5012589;28;20415;-82
2023/03/06 00:48:31;;;;;;;2.78;2.03;;;;;;;2.10;92.08;100781.09;5012771;28;20079;-83
2023/03/06 00:50:56;;;;;;;2.13;1.90;;;;;;;2.07;91.82;100775.91;5025604;28;20029;-83
2023/03/06 00:53:22;;;;;;;2.28;1.80;;;;;;;2.01;91.81;100761.28;5032709;28;20032;-82
2023/03/06 00:55:49;;;;;;;2.58;2.10;;;;;;;2.07;91.28;100778.47;5031702;28;20028;-82
2023/03/06 00:58:14;;;;;;;3.08;2.30;;;;;;;2.04;91.65;100774.16;5032679;28;20037;-83
2023/03/06 01:00:39;;;;;;;2.47;2.05;;;;;;;1.99;91.19;100773.19;5036122;28;20385;-83
2023/03/06 01:03:05;;;;;;;2.72;2.20;;;;;;;1.85;92.53;100752.47;5035548;28;20068;-83
2023/03/06 01:05:34;;;;;;;3.65;2.20;;;;;;;1.91;91.41;100773.06;5036345;28;20056;-83
2023/03/06 01:07:59;;;;;;;2.35;2.00;;;;;;;1.87;91.39;100765.28;5035838;28;20358;-82
2023/03/06 01:10:26;;;;;;;3.08;2.42;;;;;;;1.80;92.48;100772.00;5035534;28;20024;-83
2023/03/06 01:12:51;;;;;;;3.93;2.47;;;;;;;1.78;91.40;100768.53;5035916;28;20017;-82
2023/03/06 01:15:16;;;;;;;4.28;2.22;;;;;;;1.68;91.36;100763.25;5034387;28;20017;-82
2023/03/06 01:17:42;;;;;;;2.83;2.10;;;;;;;1.72;91.19;100769.28;5035385;28;20037;-83
2023/03/06 01:20:11;;;;;;;2.85;2.20;;;;;;;1.70;90.75;100766.69;5035648;28;20461;-82
2023/03/06 01:22:37;;;;;;;2.97;2.05;;;;;;;1.70;90.91;100764.13;5036022;28;20022;-83
2023/03/06 01:25:02;;;;;;;2.30;2.05;;;;;;;1.65;91.19;100763.19;5034736;28;20104;-83
2023/03/06 01:27:28;;;;;;;3.97;2.30;;;;;;;1.66;90.57;100762.34;5035421;28;20026;-83
2023/03/06 01:29:53;;;;;;;2.38;2.05;;;;;;;1.67;91.11;100764.09;5035357;28;20040;-82
2023/03/06 01:32:18;;;;;;;2.53;2.05;;;;;;;1.61;92.38;100760.53;5035230;28;20029;-83
2023/03/06 01:34:43;;;;;;;3.30;2.20;;;;;;;1.58;91.54;100760.47;5035830;28;20022;-83
2023/03/06 01:37:09;;;;;;;2.47;1.90;;;;;;;1.50;91.22;100758.63;5035611;28;20029;-83
2023/03/06 01:39:34;;;;;;;4.25;2.10;;;;;;;1.51;91.31;100762.91;5035057;28;20057;-83
2023/03/06 01:41:59;;;;;;;3.08;2.33;;;;;;;1.45;91.41;100752.53;5035392;28;20022;-83
2023/03/06 01:44:25;;;;;;;3.08;2.30;;;;;;;1.44;90.94;100752.53;5035285;28;20048;-82
2023/03/06 01:46:50;;;;;;;3.58;2.40;;;;;;;1.36;90.74;100740.41;5034324;28;20017;-82
2023/03/06 01:49:21;;;;;;;3.17;2.30;;;;;;;1.41;91.12;100752.44;5035407;28;20489;-83
2023/03/06 01:52:10;;;;;;;4.28;2.60;;;;;;;1.37;90.88;100743.84;5035260;28;20079;-83
2023/03/06 01:54:47;;;;;;;3.13;2.20;;;;;;;1.33;90.89;100744.59;5035412;28;20219;-83
2023/03/06 01:57:26;;;;;;;4.00;2.40;;;;;;;1.25;91.65;100744.44;5035578;28;20029;-83
2023/03/06 01:59:58;;;;;;;3.13;2.30;;;;;;;1.20;91.74;100744.34;5033107;28;20448;-82
2023/03/06 02:02:23;;;;;;;3.25;2.22;;;;;;;1.16;91.67;100734.03;5035026;28;20123;-82
2023/03/06 02:04:49;;;;;;;3.63;2.50;;;;;;;1.13;91.22;100728.84;5034995;28;20022;-83
2023/03/06 02:07:19;;;;;;;2.92;2.20;;;;;;;1.11;92.28;100727.97;5034379;28;20224;-83
2023/03/06 02:09:44;;;;;;;3.78;2.28;;;;;;;1.04;91.93;100722.69;5034985;28;20032;-83
2023/03/06 02:12:13;;;;;;;3.33;2.20;;;;;;;1.03;92.33;100720.97;5034836;28;20029;-82
2023/03/06 02:14:41;;;;;;;2.80;2.20;;;;;;;0.99;92.06;100721.75;5034394;28;20025;-83
2023/03/06 02:17:09;;;;;;;2.88;2.20;;;;;;;0.97;92.08;100714.84;5034861;28;20078;-83
2023/03/06 02:19:43;;;;;;;3.53;2.40;;;;;;;0.96;91.72;100718.28;5033333;28;20078;-83
2023/03/06 02:22:08;;;;;;;4.40;2.58;;;;;;;0.94;91.66;100715.66;5034036;28;20112;-83
2023/03/06 02:24:44;;;;;;;3.95;2.45;;;;;;;0.92;92.19;100710.53;5034449;28;20176;-83
2023/03/06 02:27:13;;;;;;;3.80;2.35;;;;;;;0.89;92.24;100715.56;5034157;28;20030;-83
2023/03/06 02:29:38;;;;;;;3.25;2.28;;;;;;;0.84;91.86;100706.06;5034669;28;20028;-83
2023/03/06 02:32:04;;;;;;;3.97;2.50;;;;;;;0.79;92.03;100705.13;5034395;28;20029;-83
2023/03/06 02:34:35;;;;;;;3.17;2.30;;;;;;;0.75;91.83;100693.94;5033950;28;20057;-82
2023/03/06 02:37:07;;;;;;;3.55;2.40;;;;;;;0.73;92.72;100690.53;5034638;28;20427;-83
2023/03/06 02:39:36;;;;;;;3.75;2.60;;;;;;;0.72;92.12;100693.91;5034499;28;20032;-83
2023/03/06 02:42:05;;;;;;;4.25;2.47;;;;;;;0.63;91.63;100684.31;5033535;28;20048;-83
2023/03/06 02:44:32;;;;;;;4.03;2.50;;;;;;;0.68;92.20;100694.66;5034479;28;20025;-83
2023/03/06 02:46:57;;;;;;;4.10;2.40;;;;;;;0.66;91.99;100694.63;5034145;28;20437;-83
2023/03/06 02:49:23;;;;;;;3.90;2.40;;;;;;;0.67;92.31;100687.81;5033764;28;20048;-83
2023/03/06 02:51:48;;;;;;;4.07;2.40;;;;;;;0.58;92.42;100686.78;5034107;28;20034;-83
2023/03/06 02:54:13;;;;;;;4.80;2.85;;;;;;;0.57;91.77;100677.38;5034013;28;20389;-83
2023/03/06 02:56:38;;;;;;;3.92;2.40;;;;;;;0.53;92.09;100677.28;5031749;28;20025;-83
2023/03/06 02:59:04;;;;;;;3.58;2.45;;;;;;;0.51;92.08;100676.38;5034036;28;20037;-83
2023/03/06 03:01:29;;;;;;;4.35;2.58;;;;;;;0.55;92.27;100686.69;5034150;28;20033;-83
2023/03/06 03:03:54;;;;;;;3.55;2.50;;;;;;;0.50;91.69;100685.75;5033326;28;20017;-83
2023/03/06 03:06:20;;;;;;;3.80;2.50;;;;;;;0.53;91.83;100687.50;5019058;28;20108;-83
2023/03/06 03:08:48;;;;;;;5.03;2.50;;;;;;;0.51;91.94;100684.03;5014073;28;20110;-83
2023/03/06 03:11:13;;;;;;;4.90;2.67;;;;;;;0.51;91.21;100676.38;5013502;28;20389;-83
2023/03/06 03:13:38;;;;;;;5.10;2.63;;;;;;;0.47;91.39;100675.44;5014026;28;20105;-83
2023/03/06 03:16:07;;;;;;;4.47;2.60;;;;;;;0.43;91.59;100671.97;5013910;28;20057;-83
2023/03/06 03:18:33;;;;;;;4.32;2.63;;;;;;;0.40;91.59;100671.88;5013379;28;20032;-83
2023/03/06 03:20:58;;;;;;;4.18;2.50;;;;;;;0.40;91.40;100671.88;5013732;28;20022;-83
2023/03/06 03:23:24;;;;;;;5.82;2.90;;;;;;;0.40;91.26;100671.00;5013181;28;20060;-82
2023/03/06 03:25:50;;;;;;;4.72;2.60;;;;;;;0.37;91.55;100665.84;5013538;28;20425;-83
2023/03/06 03:28:16;;;;;;;4.43;2.78;;;;;;;0.32;91.39;100663.19;5013990;28;20022;-83
2023/03/06 03:30:41;;;;;;;4.57;2.60;;;;;;;0.32;91.43;100663.19;5012978;28;20112;-83
2023/03/06 03:33:07;;;;;;;3.60;2.50;;;;;;;0.33;91.37;100659.81;5013105;28;20091;-83
2023/03/06 03:35:32;;;;;;;4.35;2.65;;;;;;;0.31;91.44;100648.69;5013906;28;20091;-83
2023/03/06 03:37:58;;;;;;;4.38;2.50;;;;;;;0.27;91.37;100650.31;5012642;28;20037;-83
2023/03/06 03:40:26;;;;;;;5.32;2.70;;;;;;;0.26;91.69;100646.03;5013845;28;20022;-83
2023/03/06 03:42:52;;;;;;;4.68;2.60;;;;;;;0.22;91.77;100641.69;5012746;28;20537;-83
2023/03/06 03:45:17;;;;;;;4.03;2.70;;;;;;;0.21;91.14;100631.44;5012598;28;20033;-83
2023/03/06 03:47:55;;;;;;;5.80;3.10;;;;;;;0.23;91.33;100632.31;5013849;28;20033;-83
2023/03/06 03:50:20;;;;;;;5.97;3.22;;;;;;;0.23;91.44;100627.22;5013235;28;20485;-83
2023/03/06 03:52:45;;;;;;;5.57;3.40;;;;;;;0.21;91.31;100624.63;5012124;28;20160;-83
2023/03/06 03:55:11;;;;;;;7.43;3.42;;;;;;;0.22;91.29;100628.91;5012923;28;20070;-82
2023/03/06 03:57:38;;;;;;;7.60;3.83;;;;;;;0.23;91.00;100617.88;5013340;28;20021;-83
2023/03/06 04:00:03;;;;;;;;;;;;;;;0.22;91.77;100617.84;5012872;28;20045;-83
2023/03/06 04:02:29;;;;;;;5.85;3.33;;;;;;;0.19;91.79;100615.22;5013208;28;19913;-83
2023/03/06 04:04:54;;;;;;;5.43;3.03;;;;;;;0.17;91.93;100611.78;5013150;28;20120;-83
2023/03/06 04:07:20;;;;;;;4.97;2.90;;;;;;;0.14;91.67;100607.47;5012562;28;20018;-83
2023/03/06 04:09:46;;;;;;;4.78;2.78;;;;;;;0.11;92.27;100598.03;5013015;28;20041;-82
2023/03/06 04:12:11;;;;;;;4.93;2.70;;;;;;;0.17;91.46;100606.66;5013285;28;20022;-83
2023/03/06 04:14:36;;;;;;;5.07;2.70;;;;;;;0.15;92.84;100604.94;5012694;28;20029;-83
2023/03/06 04:17:04;;;;;;;5.78;2.80;;;;;;;0.12;92.55;100604.00;5013022;28;20092;-83
2023/03/06 04:19:30;;;;;;;4.35;2.50;;;;;;;0.09;92.72;100602.25;5013377;28;20393;-83
2023/03/06 04:21:55;;;;;;;5.78;2.80;;;;;;;0.10;93.46;100606.53;5012402;28;20030;-83
2023/03/06 04:24:20;;;;;;;5.32;2.80;;;;;;;0.09;92.73;100599.69;5012564;28;20092;-83
2023/03/06 04:26:45;;;;;;;5.50;2.97;;;;;;;0.12;93.63;100602.31;5011955;28;20092;-82
2023/03/06 04:29:11;;;;;;;6.53;3.20;;;;;;;0.09;93.63;100593.72;5022554;28;20128;-83
2023/03/06 04:31:36;;;;;;;6.63;3.20;;;;;;;0.11;94.12;100598.03;5032772;28;20028;-83
2023/03/06 04:34:01;;;;;;;4.57;2.72;;;;;;;0.10;93.80;100596.31;5032632;28;20083;-83
2023/03/06 04:36:32;;;;;;;5.97;3.08;;;;;;;0.13;94.06;100605.72;5036919;28;20539;-83
2023/03/06 04:38:58;;;;;;;5.32;2.90;;;;;;;0.12;93.41;100597.19;5036703;28;20025;-83
2023/03/06 04:41:24;;;;;;;6.40;3.22;;;;;;;0.13;93.55;100595.53;5036019;28;20101;-83
2023/03/06 04:43:49;;;;;;;5.97;2.90;;;;;;;0.15;93.73;100594.72;5036486;28;20466;-82
2023/03/06 04:46:15;;;;;;;5.75;3.08;;;;;;;0.18;94.79;100598.19;5036818;28;20026;-83
2023/03/06 04:48:40;;;;;;;9.68;4.10;;;;;;;0.15;96.87;100589.63;5036044;28;20025;-83
2023/03/06 04:51:06;;;;;;;10.38;4.03;;;;;;;0.08;96.69;100576.69;5036217;28;20034;-83
2023/03/06 04:53:31;;;;;;;9.25;3.83;;;;;;;0.14;95.78;100577.69;5036408;28;20087;-83
2023/03/06 04:55:57;;;;;;;10.77;4.03;;;;;;;0.15;96.03;100581.97;5023094;28;20038;-83
2023/03/06 04:58:22;;;;;;;11.00;4.13;;;;;;;0.18;96.37;100588.81;5016958;28;20033;-83
2023/03/06 05:00:47;;;;;;;10.50;4.07;;;;;;;0.15;96.57;100578.56;5016217;28;20426;-83
2023/03/06 05:03:13;;;;;;;11.15;4.15;;;;;;;0.11;97.00;100566.56;5015926;28;20045;-83
2023/03/06 05:05:39;;;;;;;9.00;3.75;;;;;;;0.19;96.15;100588.00;5016536;28;20069;-83
2023/03/06 05:08:04;;;;;;;9.50;4.20;;;;;;;0.23;95.89;100581.25;5016335;28;20126;-83
2023/03/06 05:10:29;;;;;;;9.85;3.70;;;;;;;0.21;96.64;100572.75;5015660;28;20038;-83
2023/03/06 05:12:55;;;;;;;10.68;4.10;;;;;;;0.25;96.58;100579.63;5015917;28;20129;-83
2023/03/06 05:15:20;;;;;;;9.45;4.00;;;;;;;0.22;96.71;100570.22;5016590;28;20153;-83
2023/03/06 05:17:46;;;;;;;11.65;4.53;;;;;;;0.26;96.85;100574.56;5015403;28;20470;-83
2023/03/06 05:20:13;;;;;;;8.90;3.83;;;;;;;0.29;96.25;100573.75;5016479;28;20174;-83
2023/03/06 05:22:38;;;;;;;9.98;3.80;;;;;;;0.29;96.29;100566.09;5016177;28;20022;-83
2023/03/06 05:25:04;;;;;;;10.63;4.00;;;;;;;0.32;96.03;100566.19;5014807;28;20513;-84
2023/03/06 05:27:29;;;;;;;8.27;3.58;;;;;;;0.34;95.92;100561.09;5016051;28;20113;-83
2023/03/06 05:29:55;;;;;;;8.82;3.75;;;;;;;0.35;95.31;100563.69;5015898;28;20022;-83
2023/03/06 05:32:21;;;;;;;9.80;3.80;;;;;;;0.38;95.74;100560.34;5015542;28;20367;-84
2023/03/06 05:34:47;;;;;;;11.23;4.10;;;;;;;0.36;95.96;100552.63;5015638;28;20096;-82
2023/03/06 05:37:12;;;;;;;9.47;3.77;;;;;;;0.41;95.99;100561.28;5015053;28;20072;-83
2023/03/06 05:39:37;;;;;;;9.65;3.70;;;;;;;0.41;96.11;100542.53;5015824;28;20285;-83
2023/03/06 05:42:03;;;;;;;6.75;3.15;;;;;;;0.42;95.76;100562.13;5015624;28;20038;-83
2023/03/06 05:44:33;;;;;;;8.43;3.53;;;;;;;0.42;95.50;100552.78;5014816;28;20159;-83
2023/03/06 05:46:59;;;;;;;9.57;3.60;;;;;;;0.46;95.89;100554.56;5015589;28;20030;-83
2023/03/06 05:49:24;;;;;;;6.60;3.08;;;;;;;0.40;96.52;100543.34;5015843;28;20033;-83
2023/03/06 05:51:49;;;;;;;15.85;5.75;;;;;;;0.43;97.72;100551.09;5014509;28;20378;-83
2023/03/06 05:54:15;;;;;;;14.35;5.20;;;;;;;0.43;97.19;100551.97;5015508;28;20037;-83
2023/03/06 05:56:40;;;;;;;12.43;5.07;;;;;;;0.45;97.08;100554.53;5014919;28;20122;-83
2023/03/06 05:59:05;;;;;;;13.73;4.80;;;;;;;0.46;96.12;100546.06;5014683;28;20050;-85
2023/03/06 06:01:31;;;;;;;12.38;4.50;;;;;;;0.46;95.92;100546.91;5015081;28;20041;-83
2023/03/06 06:03:56;;;;;;;10.88;4.13;;;;;;;0.48;95.74;100544.41;5015390;28;20018;-84
2023/03/06 06:06:21;;;;;;;9.50;4.25;;;;;;;0.49;96.61;100545.25;5014319;28;20032;-83
2023/03/06 06:08:47;;;;;;;9.52;4.07;;;;;;;0.48;97.45;100543.53;5015386;28;20165;-83
2023/03/06 06:11:12;;;;;;;11.23;4.32;;;;;;;0.51;96.90;100556.34;5015102;28;20437;-83
2023/03/06 06:13:39;;;;;;;11.10;4.13;;;;;;;0.52;96.54;100546.16;5014700;28;20026;-83
2023/03/06 06:16:05;;;;;;;;;;;;;;;0.54;96.82;100549.63;5015146;28;20451;-83
2023/03/06 06:18:30;;;;;;;8.63;3.50;;;;;;;0.53;96.48;100536.84;5019562;28;19944;-83
2023/03/06 06:20:56;;;;;;;8.80;3.85;;;;;;;0.55;96.94;100545.41;5033936;28;20071;-83
2023/03/06 06:23:21;;;;;;;11.25;4.18;;;;;;;0.54;96.10;100534.31;5034645;28;20029;-83
2023/03/06 06:25:46;;;;;;;9.63;4.05;;;;;;;0.56;96.64;100534.34;5034673;28;20033;-83
2023/03/06 06:28:12;;;;;;;12.40;4.60;;;;;;;0.61;95.68;100545.50;5033938;28;20458;-84
2023/03/06 06:30:37;;;;;;;17.77;6.60;;;;;;;0.58;98.54;100537.78;5034730;28;20052;-83
2023/03/06 06:33:02;;;;;;;18.17;6.78;;;;;;;0.54;97.46;100534.31;5034297;28;20024;-83
2023/03/06 06:35:27;;;;;;;17.60;6.38;;;;;;;0.55;97.40;100537.72;5034161;28;20100;-83
2023/03/06 06:37:53;;;;;;;17.23;6.10;;;;;;;0.57;99.20;100536.94;5034405;28;20028;-83
2023/03/06 06:40:19;;;;;;;15.82;5.80;;;;;;;0.57;97.96;100536.94;5034492;28;20061;-87
2023/03/06 06:42:45;;;;;;;13.70;5.32;;;;;;;0.60;97.81;100537.00;5034633;28;20092;-83
2023/03/06 06:45:11;;;;;;;15.80;5.13;;;;;;;0.63;97.92;100538.75;5034121;28;20029;-82
2023/03/06 06:47:40;;;;;;;16.60;6.22;;;;;;;0.63;99.27;100541.28;5033543;28;20040;-81
2023/03/06 06:50:07;;;;;;;17.30;6.30;;;;;;;0.63;98.94;100536.19;5033864;28;20104;-81
2023/03/06 06:52:34;;;;;;;16.35;6.00;;;;;;;0.59;99.68;100529.28;5032759;28;20112;-81
2023/03/06 06:55:00;;;;;;;18.42;7.25;;;;;;;0.64;100.00;100532.81;5032474;28;20472;-82
2023/03/06 06:57:25;;;;;;;16.48;6.05;;;;;;;0.70;100.00;100539.72;5033539;28;20025;-82
2023/03/06 06:59:50;;;;;;;17.25;6.20;;;;;;;0.70;99.78;100538.03;5033779;28;20049;-84
2023/03/06 07:02:16;;;;;;;18.13;7.10;;;;;;;0.74;99.54;100542.38;5033090;28;20022;-83
2023/03/06 07:04:42;;;;;;;19.00;7.50;;;;;;;0.76;100.00;100544.94;5034159;28;20430;-84
2023/03/06 07:07:08;;;;;;;19.27;7.88;;;;;;;0.79;100.00;100552.69;5033927;28;20049;-81
2023/03/06 07:09:33;;;;;;;19.92;7.43;;;;;;;0.82;100.00;100550.19;5033318;28;20053;-84
2023/03/06 07:11:58;;;;;;;19.85;8.25;;;;;;;0.82;100.00;100552.75;5032587;28;20536;-83
2023/03/06 07:14:24;;;;;;;19.70;7.75;;;;;;;0.85;100.00;100551.94;5033278;28;20030;-83
2023/03/06 07:16:49;;;;;;;19.15;7.45;;;;;;;0.89;100.00;100551.19;5032949;28;20195;-83
2023/03/06 07:19:20;;;;;;;16.92;6.50;;;;;;;0.90;100.00;100547.81;5033828;28;20033;-82
2023/03/06 07:21:46;;;;;;;18.20;6.82;;;;;;;0.98;100.00;100547.94;5019190;28;20044;-81
2023/03/06 07:24:11;;;;;;;18.83;7.43;;;;;;;0.99;100.00;100550.53;5012789;28;20128;-83
2023/03/06 07:26:36;;;;;;;18.10;6.75;;;;;;;1.04;99.86;100559.13;5014011;28;20393;-83
2023/03/06 07:29:03;;;;;;;19.75;7.78;;;;;;;1.07;100.00;100553.19;5013671;28;20022;-83
2023/03/06 07:31:28;;;;;;;17.13;6.75;;;;;;;1.10;100.00;100550.72;5012901;28;20037;-83
2023/03/06 07:33:54;;;;;;;18.98;7.57;;;;;;;1.14;100.00;100551.63;5024058;28;20116;-82
2023/03/06 07:36:20;;;;;;;22.70;9.50;;;;;;;1.22;98.01;100558.63;5033427;28;20014;-88
2023/03/06 07:38:46;;;;;;;21.52;8.88;;;;;;;1.21;99.45;100550.94;5033054;28;20021;-86
2023/03/06 07:41:13;;;;;;;22.05;9.25;;;;;;;1.26;99.70;100544.19;5033569;28;20053;-85
2023/03/06 07:43:40;;;;;;;23.25;9.73;;;;;;;1.28;100.00;100542.53;5032789;28;20120;-86
2023/03/06 07:46:06;;;;;;;21.75;9.50;;;;;;;1.32;99.71;100544.31;5033065;28;20480;-86
2023/03/06 07:48:31;;;;;;;21.10;8.63;;;;;;;1.44;100.00;100545.38;5028139;28;20469;-83
2023/03/06 07:51:06;;;;;;;20.70;8.80;;;;;;;1.45;100.00;100549.66;5012331;28;20045;-82
2023/03/06 07:53:33;;;;;;;22.00;9.43;;;;;;;1.46;100.00;100561.59;5013708;28;20033;-82
2023/03/06 07:55:58;;;;;;;21.77;9.52;;;;;;;1.48;100.00;100554.78;5013274;28;20474;-82
2023/03/06 07:58:25;;;;;;;20.75;8.30;;;;;;;1.50;100.00;100559.13;5012708;28;20026;-82
2023/03/06 08:00:50;;;;;;;21.80;9.00;;;;;;;1.51;100.00;100559.97;5013072;28;20034;-82
2023/03/06 08:03:16;;;;;;;23.95;10.50;;;;;;;1.47;100.00;100555.63;5013464;28;20040;-82
2023/03/06 08:05:42;;;;;;;23.80;10.60;;;;;;;1.46;100.00;100554.78;5012429;28;20048;-82
2023/03/06 08:08:07;;;;;;;24.00;10.63;;;;;;;1.53;100.00;100554.03;5012934;28;20044;-82
2023/03/06 08:10:35;;;;;;;24.20;11.32;;;;;;;1.63;100.00;100559.34;5013275;28;20065;-82
2023/03/06 08:13:01;;;;;;;26.00;11.77;;;;;;;1.67;100.00;100551.75;5012295;28;20025;-82
2023/03/06 08:15:26;;;;;;;25.40;11.85;;;;;;;1.73;100.00;100547.53;5013411;28;20106;-82
2023/03/06 08:17:51;;;;;;;25.33;11.38;;;;;;;1.80;100.00;100557.91;5012913;28;20030;-82
2023/03/06 08:20:17;;;;;;;23.13;10.57;;;;;;;1.90;100.00;100560.59;5012142;28;20033;-82
2023/03/06 08:22:43;;;;;;;22.85;10.55;;;;;;;1.94;100.00;100550.44;5014294;28;20041;-82
2023/03/06 08:25:09;;;;;;;23.80;10.95;;;;;;;2.01;100.00;100548.81;5012526;28;20076;-82
2023/03/06 08:27:35;;;;;;;22.60;10.13;;;;;;;2.05;100.00;100562.53;5012382;28;20026;-82
2023/03/06 08:30:00;;;;;;;23.45;10.60;;;;;;;2.06;100.00;100559.13;5012536;28;20030;-82
2023/03/06 08:32:26;;;;;;;23.67;9.75;;;;;;;2.09;100.00;100554.91;5013251;28;20355;-82
2023/03/06 08:34:51;;;;;;;21.92;9.43;;;;;;;2.07;100.00;100556.63;5012638;28;20527;-81
2023/03/06 08:37:17;;;;;;;24.20;10.88;;;;;;;2.07;100.00;100555.75;5013059;28;20030;-81
2023/03/06 08:39:42;;;;;;;24.63;11.30;;;;;;;2.08;100.00;100557.47;5012672;28;20104;-82
2023/03/06 08:42:11;;;;;;;23.60;11.27;;;;;;;2.11;100.00;100557.53;5011807;28;20030;-82
2023/03/06 08:44:36;;;;;;;21.10;9.15;;;;;;;2.20;100.00;100557.66;5017240;28;20116;-82
2023/03/06 08:47:02;;;;;;;21.60;9.35;;;;;;;2.33;100.00;100560.38;5019847;28;20026;-81
2023/03/06 08:49:28;;;;;;;20.45;8.77;;;;;;;2.51;100.00;100562.34;5018354;28;20022;-82
2023/03/06 08:51:56;;;;;;;19.60;8.48;;;;;;;2.62;100.00;100550.53;5012074;28;20038;-82
2023/03/06 08:54:22;;;;;;;21.08;8.85;;;;;;;2.70;100.00;100554.03;5011659;28;20053;-81
2023/03/06 08:56:47;;;;;;;21.67;9.55;;;;;;;2.72;100.00;100557.50;5012156;28;20439;-81
2023/03/06 08:59:15;;;;;;;23.60;11.15;;;;;;;2.79;100.00;100566.13;5012293;28;20021;-82
2023/03/06 09:01:40;;;;;;;21.30;9.57;;;;;;;2.90;99.70;100561.09;5011721;28;20394;-81
2023/03/06 09:04:08;;;;;;;23.35;10.38;;;;;;;2.99;99.07;100560.34;5026564;28;20240;-81
2023/03/06 09:06:37;;;;;;;21.83;10.00;;;;;;;3.05;100.00;100566.41;5016169;28;20022;-82
2023/03/06 09:09:03;;;;;;;21.67;9.73;;;;;;;3.12;99.28;100562.22;5010663;28;20021;-82
2023/03/06 09:11:29;;;;;;;21.00;9.50;;;;;;;3.21;99.39;100570.00;5012470;28;20393;-81
2023/03/06 09:13:55;;;;;;;21.15;9.57;;;;;;;3.27;99.40;100560.63;5031160;28;20017;-81
2023/03/06 09:16:20;;;;;;;21.77;9.45;;;;;;;3.27;98.68;100564.06;5030951;28;20022;-82
2023/03/06 09:18:46;;;;;;;20.40;9.18;;;;;;;3.35;98.12;100564.16;5031368;28;20092;-82
2023/03/06 09:21:11;;;;;;;21.95;10.00;;;;;;;3.40;98.07;100570.19;5034808;28;20104;-81
2023/03/06 09:23:38;;;;;;;21.10;9.77;;;;;;;3.40;98.35;100565.94;5034564;28;20053;-82
2023/03/06 09:26:04;;;;;;;21.05;8.98;;;;;;;3.44;98.21;100574.50;5035104;28;20466;-82
2023/03/06 09:28:34;;;;;;;19.77;8.43;;;;;;;3.40;98.29;100568.50;5035488;28;20029;-81
2023/03/06 09:30:59;;;;;;;19.33;8.20;;;;;;;3.40;97.71;100568.50;5034281;28;20052;-82
2023/03/06 09:33:27;;;;;;;19.58;8.80;;;;;;;3.35;97.30;100564.16;5035631;28;20018;-81
2023/03/06 09:35:55;;;;;;;17.83;7.72;;;;;;;3.28;97.74;100558.09;5035179;28;20075;-82
2023/03/06 09:38:24;;;;;;;19.20;8.30;;;;;;;3.38;97.14;100577.00;5034585;28;20025;-82
2023/03/06 09:40:59;;;;;;;18.13;7.38;;;;;;;3.38;96.92;100572.75;5033147;28;20034;-81
2023/03/06 09:44:03;;;;;;;18.52;7.50;;;;;;;3.36;97.28;100571.00;5034640;28;20033;-81
2023/03/06 09:46:56;;;;;;;18.63;7.60;;;;;;;3.36;96.78;100574.44;5035390;28;20100;-82
2023/03/06 09:49:33;;;;;;;17.02;7.00;;;;;;;3.37;96.84;100565.03;5035068;28;20107;-81
2023/03/06 09:52:27;;;;;;;15.90;6.75;;;;;;;3.36;97.23;100563.31;5015097;28;20486;-81
2023/03/06 09:54:56;;;;;;;15.85;6.65;;;;;;;3.38;96.67;100571.88;5015584;28;20030;-82
2023/03/06 09:57:27;;;;;;;15.70;6.72;;;;;;;3.37;96.58;100578.72;5012670;28;20478;-82
2023/03/06 09:59:56;;;;;;;14.38;5.95;;;;;;;3.42;96.76;100575.34;5013186;28;20034;-81
2023/03/06 10:02:25;;;;;;;14.48;5.78;;;;;;;3.49;96.99;100570.25;5013213;28;20037;-81
2023/03/06 10:04:58;;;;;;;13.43;5.38;;;;;;;3.54;97.10;100578.88;5012464;28;20026;-81
2023/03/06 10:07:30;;;;;;;11.32;4.90;;;;;;;3.59;96.62;100568.66;5013583;28;20149;-82
2023/03/06 10:10:00;;;;;;;14.35;5.97;;;;;;;3.58;95.96;100566.09;5012816;28;20026;-81
2023/03/06 10:12:31;;;;;;;14.65;6.07;;;;;;;3.59;95.77;100572.94;5014464;28;20022;-81
2023/03/06 10:15:17;;;;;;;13.60;5.38;;;;;;;3.62;96.24;100566.13;5014297;28;20095;-81
2023/03/06 10:17:46;;;;;;;13.35;5.32;;;;;;;3.68;96.34;100562.75;5015305;28;20037;-81
2023/03/06 10:20:17;;;;;;;11.05;4.85;;;;;;;3.77;96.32;100567.09;5014152;28;20025;-81
2023/03/06 10:22:56;;;;;;;12.20;5.03;;;;;;;3.83;96.06;100562.84;5019111;28;20056;-81
2023/03/06 10:25:34;;;;;;;12.10;5.50;;;;;;;3.90;95.84;100562.91;5034644;28;20137;-81
2023/03/06 10:28:14;;;;;;;11.70;5.15;;;;;;;3.97;95.77;100562.97;5034696;28;20107;-81
2023/03/06 10:31:02;;;;;;;15.43;6.25;;;;;;;4.06;94.95;100566.47;5034789;28;20037;-81
2023/03/06 10:33:46;;;;;;;12.63;5.28;;;;;;;4.14;95.04;100560.53;5033804;28;20101;-81
2023/03/06 10:36:17;;;;;;;16.85;6.43;;;;;;;4.24;94.34;100564.00;5034392;28;20033;-81
2023/03/06 10:38:43;;;;;;;13.48;5.68;;;;;;;4.38;94.93;100550.38;5034670;28;20476;-81
2023/03/06 10:41:11;;;;;;;13.05;5.68;;;;;;;4.58;95.48;100550.50;5033453;28;20450;-82
2023/03/06 10:43:44;;;;;;;11.90;5.30;;;;;;;4.77;95.20;100547.13;5034238;28;20072;-81
2023/03/06 10:46:13;;;;;;;13.98;6.10;;;;;;;5.03;93.54;100554.09;5034223;28;20362;-81
2023/03/06 10:48:40;;;;;;;14.98;6.25;;;;;;;5.14;91.16;100546.38;5033248;28;20014;-81
2023/03/06 10:51:18;;;;;;;16.80;7.30;;;;;;;5.23;89.79;100551.56;5024835;28;20045;-81
2023/03/06 10:54:12;;;;;;;17.15;7.47;;;;;;;5.33;90.55;100554.16;5013768;28;20022;-81
2023/03/06 10:56:43;;;;;;;16.30;6.93;;;;;;;5.52;91.80;100550.75;5012305;28;20038;-81
2023/03/06 10:59:18;;;;;;;13.85;6.13;;;;;;;5.77;91.31;100557.59;5014160;28;20033;-81
2023/03/06 11:01:52;;;;;;;14.40;6.00;;;;;;;5.87;91.80;100557.63;5013299;28;20034;-81
2023/03/06 11:04:35;;;;;;;12.60;5.60;;;;;;;5.95;90.89;100559.31;5014213;28;20113;-81
2023/03/06 11:07:23;;;;;;;13.18;5.72;;;;;;;6.00;90.31;100555.91;5013823;28;20120;-81
2023/03/06 11:09:57;;;;;;;15.70;6.70;;;;;;;5.98;88.79;100556.75;5013193;28;20021;-81
2023/03/06 11:12:37;;;;;;;16.13;6.65;;;;;;;5.90;87.32;100556.75;5014101;28;20060;-81
2023/03/06 11:15:05;;;;;;;16.30;6.93;;;;;;;5.80;88.41;100555.88;5012901;28;20029;-81
2023/03/06 11:17:32;;;;;;;16.02;6.80;;;;;;;5.70;87.38;100555.06;5013945;28;20467;-81
2023/03/06 11:20:21;;;;;;;17.60;7.35;;;;;;;5.61;83.70;100555.06;5013713;28;20433;-81
2023/03/06 11:23:04;;;;;;;17.73;7.97;;;;;;;5.61;87.18;100549.03;5013104;28;20501;-81
2023/03/06 11:26:08;;;;;;;17.40;7.47;;;;;;;5.71;87.25;100545.59;5013667;28;20053;-81
2023/03/06 11:28:39;;;;;;;15.82;7.10;;;;;;;5.77;85.87;100545.59;5004790;28;20163;-81
2023/03/06 11:31:10;;;;;;;15.50;6.38;;;;;;;5.80;86.37;100540.44;5012754;28;20045;-81